createdAt,value
2022-08-05T00:00:31.808Z,0.00
2022-08-05T00:01:36.125Z,0.00
2022-08-05T00:02:31.988Z,0.00
2022-08-05T00:03:32.024Z,0.00
2022-08-05T00:04:32.126Z,0.00
2022-08-05T00:06:05.341Z,0.00
2022-08-05T00:06:36.050Z,0.00
2022-08-05T00:08:00.158Z,0.00
2022-08-05T00:08:35.506Z,0.00
2022-08-05T00:09:32.545Z,0.00
2022-08-05T00:10:32.660Z,0.00
2022-08-05T00:11:35.085Z,0.00
2022-08-05T00:12:32.834Z,0.00
2022-08-05T00:13:39.354Z,0.00
2022-08-05T00:14:33.005Z,0.00
2022-08-05T00:15:58.023Z,0.00
2022-08-05T00:16:35.711Z,0.00
2022-08-05T00:17:33.488Z,0.00
2022-08-05T00:18:33.335Z,0.00
2022-08-05T00:19:44.053Z,0.00
2022-08-05T00:20:33.529Z,0.00
2022-08-05T00:21:35.769Z,0.00
2022-08-05T00:22:33.650Z,0.00
2022-08-05T00:23:45.745Z,0.00
2022-08-05T00:24:33.827Z,0.00
2022-08-05T00:25:45.503Z,0.00
2022-08-05T00:26:34.010Z,0.00
2022-08-05T00:27:36.222Z,0.00
2022-08-05T00:28:34.155Z,0.00
2022-08-05T00:29:38.131Z,0.00
2022-08-05T00:30:34.345Z,0.00
2022-08-05T00:31:54.035Z,0.00
2022-08-05T00:32:34.473Z,0.00
2022-08-05T00:34:54.889Z,0.00
2022-08-05T00:35:10.391Z,0.00
2022-08-05T00:35:34.720Z,0.00
2022-08-05T00:37:08.986Z,0.00
2022-08-05T00:37:50.370Z,0.00
2022-08-05T00:38:35.008Z,0.00
2022-08-05T00:39:41.371Z,0.00
2022-08-05T00:40:35.195Z,0.00
2022-08-05T00:41:51.700Z,0.00
2022-08-05T00:42:35.362Z,0.00
2022-08-05T00:43:46.711Z,0.00
2022-08-05T00:44:35.521Z,0.00
2022-08-05T00:45:38.412Z,0.00
2022-08-05T00:46:42.586Z,0.00
2022-08-05T00:47:52.939Z,0.00
2022-08-05T00:48:35.838Z,0.00
2022-08-05T00:49:44.639Z,0.00
2022-08-05T00:50:36.002Z,0.00
2022-08-05T00:51:50.714Z,0.00
2022-08-05T00:52:36.157Z,0.00
2022-08-05T00:54:00.520Z,0.00
2022-08-05T00:54:36.333Z,0.00
2022-08-05T00:55:43.690Z,0.00
2022-08-05T00:56:36.513Z,0.00
2022-08-05T00:57:55.409Z,0.00
2022-08-05T00:58:36.955Z,0.00
2022-08-05T00:59:44.620Z,0.00
2022-08-05T01:00:36.917Z,0.00
2022-08-05T01:01:42.762Z,0.00
2022-08-05T01:02:37.023Z,0.00
2022-08-05T01:03:37.095Z,0.00
2022-08-05T01:04:37.185Z,0.00
2022-08-05T01:05:37.293Z,0.00
2022-08-05T01:06:37.336Z,0.00
2022-08-05T01:07:37.415Z,0.00
2022-08-05T01:08:42.853Z,0.00
2022-08-05T01:09:37.568Z,0.00
2022-08-05T01:10:37.670Z,0.00
2022-08-05T01:11:37.783Z,0.00
2022-08-05T01:12:37.782Z,0.00
2022-08-05T01:13:57.503Z,0.00
2022-08-05T01:14:37.947Z,0.00
2022-08-05T01:15:38.054Z,0.00
2022-08-05T01:16:38.111Z,0.00
2022-08-05T01:17:40.189Z,0.00
2022-08-05T01:18:38.267Z,0.00
2022-08-05T01:20:01.854Z,0.00
2022-08-05T01:20:38.481Z,0.00
2022-08-05T01:21:38.631Z,0.00
2022-08-05T01:22:38.618Z,0.00
2022-08-05T01:23:38.730Z,0.00
2022-08-05T01:24:38.793Z,0.00
2022-08-05T01:25:39.625Z,0.00
2022-08-05T01:26:38.931Z,0.00
2022-08-05T01:27:50.526Z,0.00
2022-08-05T01:28:39.535Z,0.00
2022-08-05T01:29:39.193Z,0.00
2022-08-05T01:30:39.272Z,0.00
2022-08-05T01:31:44.621Z,0.00
2022-08-05T01:32:39.430Z,0.00
2022-08-05T01:33:39.513Z,0.00
2022-08-05T01:34:39.591Z,0.00
2022-08-05T01:35:50.607Z,0.00
2022-08-05T01:36:42.316Z,0.00
2022-08-05T01:37:44.372Z,0.00
2022-08-05T01:38:39.934Z,0.00
2022-08-05T01:39:47.621Z,0.00
2022-08-05T01:40:41.983Z,0.00
2022-08-05T01:41:40.208Z,0.00
2022-08-05T01:42:40.778Z,0.00
2022-08-05T01:43:40.382Z,0.00
2022-08-05T01:44:40.446Z,0.00
2022-08-05T01:45:42.852Z,0.00
2022-08-05T01:46:42.599Z,0.00
2022-08-05T01:47:43.192Z,0.00
2022-08-05T01:48:40.764Z,0.00
2022-08-05T01:50:00.344Z,0.00
2022-08-05T01:50:40.947Z,0.00
2022-08-05T01:51:41.061Z,0.00
2022-08-05T01:52:41.116Z,0.00
2022-08-05T01:53:57.326Z,0.00
2022-08-05T01:54:45.928Z,0.00
2022-08-05T01:55:41.394Z,0.00
2022-08-05T01:58:11.869Z,0.00
2022-08-05T01:58:40.300Z,0.00
2022-08-05T01:58:45.729Z,0.00
2022-08-05T01:59:41.716Z,0.00
2022-08-05T02:00:41.801Z,0.00
2022-08-05T02:01:41.944Z,0.00
2022-08-05T02:02:46.499Z,0.00
2022-08-05T02:03:42.043Z,0.00
2022-08-05T02:04:42.116Z,0.00
2022-08-05T02:05:42.660Z,0.00
2022-08-05T02:06:42.279Z,0.00
2022-08-05T02:07:42.334Z,0.00
2022-08-05T02:08:54.937Z,0.00
2022-08-05T02:09:42.514Z,0.00
2022-08-05T02:10:42.574Z,0.00
2022-08-05T02:11:48.028Z,0.00
2022-08-05T02:12:42.752Z,0.00
2022-08-05T02:13:53.834Z,0.00
2022-08-05T02:14:43.250Z,0.00
2022-08-05T02:15:43.004Z,0.00
2022-08-05T02:16:44.057Z,0.00
2022-08-05T02:18:28.746Z,0.00
2022-08-05T02:18:43.252Z,0.00
2022-08-05T02:19:47.668Z,0.00
2022-08-05T02:20:43.398Z,0.00
2022-08-05T02:21:46.806Z,0.00
2022-08-05T02:22:43.542Z,0.00
2022-08-05T02:23:43.623Z,0.00
2022-08-05T02:24:43.694Z,0.00
2022-08-05T02:25:50.066Z,0.00
2022-08-05T02:26:54.051Z,0.00
2022-08-05T02:27:58.345Z,0.00
2022-08-05T02:28:45.817Z,0.00
2022-08-05T02:29:59.966Z,0.00
2022-08-05T02:30:51.649Z,0.00
2022-08-05T02:31:44.329Z,0.00
2022-08-05T02:32:44.388Z,0.00
2022-08-05T02:33:44.479Z,0.00
2022-08-05T02:34:44.561Z,0.00
2022-08-05T02:35:57.527Z,0.00
2022-08-05T02:36:44.770Z,0.00
2022-08-05T02:37:47.814Z,0.00
2022-08-05T02:38:44.914Z,0.00
2022-08-05T02:39:47.674Z,0.00
2022-08-05T02:40:45.027Z,0.00
2022-08-05T02:42:00.457Z,0.00
2022-08-05T02:42:45.187Z,0.00
2022-08-05T02:44:05.998Z,0.00
2022-08-05T02:44:45.377Z,0.00
2022-08-05T02:45:52.164Z,0.00
2022-08-05T02:46:58.312Z,0.00
2022-08-05T02:48:06.480Z,0.00
2022-08-05T02:48:45.712Z,0.00
2022-08-05T02:49:45.792Z,0.00
2022-08-05T02:50:45.873Z,0.00
2022-08-05T02:52:03.393Z,0.00
2022-08-05T02:52:46.036Z,0.00
2022-08-05T02:53:46.110Z,0.00
2022-08-05T02:54:50.713Z,0.00
2022-08-05T02:55:54.629Z,0.00
2022-08-05T02:56:46.355Z,0.00
2022-08-05T02:58:10.505Z,0.00
2022-08-05T02:58:51.205Z,0.00
2022-08-05T02:59:48.101Z,0.00
2022-08-05T03:00:46.640Z,0.00
2022-08-05T03:01:46.828Z,0.00
2022-08-05T03:02:46.825Z,0.00
2022-08-05T03:04:02.921Z,0.00
2022-08-05T03:04:46.977Z,0.00
2022-08-05T03:06:56.160Z,0.00
2022-08-05T03:07:03.570Z,0.00
2022-08-05T03:08:04.620Z,0.00
2022-08-05T03:08:47.290Z,0.00
2022-08-05T03:09:51.431Z,0.00
2022-08-05T03:11:53.096Z,0.00
2022-08-05T03:12:00.371Z,0.00
2022-08-05T03:12:47.602Z,0.00
2022-08-05T03:13:52.120Z,0.00
2022-08-05T03:14:48.170Z,0.00
2022-08-05T03:15:47.815Z,0.00
2022-08-05T03:16:47.868Z,0.00
2022-08-05T03:17:47.971Z,0.00
2022-08-05T03:18:48.033Z,0.00
2022-08-05T03:19:48.115Z,0.00
2022-08-05T03:20:48.635Z,0.00
2022-08-05T03:21:49.283Z,0.00
2022-08-05T03:22:50.009Z,0.00
2022-08-05T03:23:48.437Z,0.00
2022-08-05T03:24:50.759Z,0.00
2022-08-05T03:26:30.164Z,0.00
2022-08-05T03:26:49.371Z,0.00
2022-08-05T03:28:00.255Z,0.00
2022-08-05T03:28:48.817Z,0.00
2022-08-05T03:30:07.660Z,0.00
2022-08-05T03:30:48.949Z,0.00
2022-08-05T03:31:56.590Z,0.00
2022-08-05T03:32:49.112Z,0.00
2022-08-05T03:33:52.811Z,0.00
2022-08-05T03:34:50.986Z,0.00
2022-08-05T03:35:49.868Z,0.00
2022-08-05T03:36:49.393Z,0.00
2022-08-05T03:37:49.486Z,0.00
2022-08-05T03:38:53.214Z,0.00
2022-08-05T03:39:59.187Z,0.00
2022-08-05T03:40:49.709Z,0.00
2022-08-05T03:41:49.759Z,0.00
2022-08-05T03:42:52.052Z,0.00
2022-08-05T03:44:09.534Z,0.00
2022-08-05T03:44:50.037Z,0.00
2022-08-05T03:45:58.339Z,0.00
2022-08-05T03:46:50.212Z,0.00
2022-08-05T03:47:50.299Z,0.00
2022-08-05T03:48:50.337Z,0.00
2022-08-05T03:49:51.425Z,0.00
2022-08-05T03:50:50.495Z,0.00
2022-08-05T03:52:38.381Z,0.00
2022-08-05T03:56:01.184Z,0.00
2022-08-05T03:56:18.055Z,0.00
2022-08-05T03:56:35.789Z,0.00
2022-08-05T03:57:42.388Z,0.00
2022-08-05T03:58:27.133Z,0.00
2022-08-05T03:59:24.611Z,0.00
2022-08-05T04:00:24.111Z,0.00
2022-08-05T04:01:24.148Z,0.00
2022-08-05T04:02:38.425Z,0.00
2022-08-05T04:03:28.509Z,0.00
2022-08-05T04:04:26.503Z,0.00
2022-08-05T04:05:24.389Z,0.00
2022-08-05T04:06:24.467Z,0.00
2022-08-05T04:07:24.895Z,0.00
2022-08-05T04:08:34.809Z,0.00
2022-08-05T04:09:26.422Z,0.00
2022-08-05T04:10:24.812Z,0.00
2022-08-05T04:11:24.877Z,0.00
2022-08-05T04:12:25.003Z,0.00
2022-08-05T04:13:25.031Z,0.00
2022-08-05T04:14:30.404Z,0.00
2022-08-05T04:15:25.201Z,0.00
2022-08-05T04:16:32.441Z,0.00
2022-08-05T04:17:25.641Z,0.00
2022-08-05T04:18:25.712Z,0.00
2022-08-05T04:19:25.475Z,0.00
2022-08-05T04:20:25.589Z,0.00
2022-08-05T04:22:08.671Z,0.00
2022-08-05T04:22:26.596Z,0.00
2022-08-05T04:23:58.388Z,0.00
2022-08-05T04:24:25.935Z,0.00
2022-08-05T04:25:56.577Z,0.00
2022-08-05T04:26:26.087Z,0.00
2022-08-05T04:27:33.316Z,5.62
2022-08-05T04:28:30.562Z,5.62
2022-08-05T04:29:27.096Z,5.62
2022-08-05T04:30:26.704Z,5.62
2022-08-05T04:31:27.702Z,5.62
2022-08-05T04:32:33.294Z,5.62
2022-08-05T04:33:54.669Z,5.62
2022-08-05T04:34:32.399Z,5.62
2022-08-05T04:35:26.865Z,5.62
2022-08-05T04:36:45.510Z,11.25
2022-08-05T04:38:00.672Z,11.25
2022-08-05T04:38:39.849Z,11.25
2022-08-05T04:39:27.706Z,16.88
2022-08-05T04:40:27.253Z,16.88
2022-08-05T04:41:36.641Z,22.50
2022-08-05T04:42:27.397Z,22.50
2022-08-05T04:43:27.465Z,28.12
2022-08-05T04:44:30.275Z,33.75
2022-08-05T04:45:31.378Z,45.00
2022-08-05T04:46:28.680Z,56.25
2022-08-05T04:47:27.826Z,67.50
2022-08-05T04:48:28.462Z,78.75
2022-08-05T04:50:01.353Z,95.62
2022-08-05T04:50:37.386Z,101.25
2022-08-05T04:51:30.301Z,118.12
2022-08-05T04:52:28.420Z,129.38
2022-08-05T04:53:28.288Z,129.38
2022-08-05T04:54:28.375Z,106.88
2022-08-05T04:55:49.789Z,106.88
2022-08-05T04:56:37.279Z,123.75
2022-08-05T04:57:29.619Z,140.62
2022-08-05T04:58:28.706Z,140.62
2022-08-05T04:59:38.891Z,135.00
2022-08-05T05:00:28.850Z,129.38
2022-08-05T05:02:05.574Z,123.75
2022-08-05T05:02:37.540Z,118.12
2022-08-05T05:03:29.046Z,112.50
2022-08-05T05:04:29.131Z,106.88
2022-08-05T05:05:29.480Z,106.88
2022-08-05T05:06:36.100Z,106.88
2022-08-05T05:07:32.281Z,106.88
2022-08-05T05:08:30.445Z,106.88
2022-08-05T05:09:29.531Z,106.88
2022-08-05T05:10:29.877Z,112.50
2022-08-05T05:11:41.403Z,112.50
2022-08-05T05:12:29.790Z,112.50
2022-08-05T05:13:32.357Z,112.50
2022-08-05T05:14:31.844Z,112.50
2022-08-05T05:15:56.819Z,112.50
2022-08-05T05:16:30.388Z,106.88
2022-08-05T05:17:56.694Z,101.25
2022-08-05T05:18:33.326Z,95.62
2022-08-05T05:19:36.933Z,95.62
2022-08-05T05:20:30.458Z,95.62
2022-08-05T05:21:30.462Z,95.62
2022-08-05T05:22:30.565Z,95.62
2022-08-05T05:23:39.023Z,95.62
2022-08-05T05:24:32.776Z,95.62
2022-08-05T05:25:40.246Z,95.62
2022-08-05T05:26:32.945Z,90.00
2022-08-05T05:27:44.309Z,95.62
2022-08-05T05:28:31.077Z,95.62
2022-08-05T05:30:03.519Z,95.62
2022-08-05T05:30:33.354Z,101.25
2022-08-05T05:32:12.412Z,112.50
2022-08-05T05:33:16.918Z,123.75
2022-08-05T05:34:10.318Z,129.38
2022-08-05T05:35:10.373Z,129.38
2022-08-05T05:36:10.471Z,135.00
2022-08-05T05:37:10.535Z,129.38
2022-08-05T05:38:13.451Z,129.38
2022-08-05T05:39:10.685Z,118.12
2022-08-05T05:40:10.764Z,112.50
2022-08-05T05:41:10.864Z,106.88
2022-08-05T05:42:10.929Z,106.88
2022-08-05T05:43:11.010Z,112.50
2022-08-05T05:44:35.761Z,112.50
2022-08-05T05:45:11.162Z,123.75
2022-08-05T05:46:15.834Z,129.38
2022-08-05T05:47:21.362Z,123.75
2022-08-05T05:48:11.385Z,129.38
2022-08-05T05:49:22.345Z,135.00
2022-08-05T05:50:11.519Z,151.88
2022-08-05T05:51:15.061Z,163.12
2022-08-05T05:52:26.373Z,174.38
2022-08-05T05:53:22.168Z,191.25
2022-08-05T05:54:11.833Z,208.12
2022-08-05T05:55:13.359Z,213.75
2022-08-05T05:56:11.990Z,219.38
2022-08-05T05:57:24.265Z,230.62
2022-08-05T05:58:12.108Z,253.12
2022-08-05T05:59:12.167Z,253.12
2022-08-05T06:00:12.259Z,270.00
2022-08-05T06:01:15.231Z,309.38
2022-08-05T06:02:12.410Z,331.88
2022-08-05T06:03:40.131Z,371.25
2022-08-05T06:04:13.072Z,388.12
2022-08-05T06:05:16.643Z,410.62
2022-08-05T06:06:12.837Z,427.50
2022-08-05T06:07:12.763Z,461.25
2022-08-05T06:08:12.867Z,562.50
2022-08-05T06:09:17.513Z,658.12
2022-08-05T06:10:13.034Z,776.25
2022-08-05T06:11:13.445Z,860.62
2022-08-05T06:12:13.205Z,585.00
2022-08-05T06:13:13.292Z,551.25
2022-08-05T06:14:13.375Z,523.12
2022-08-05T06:15:23.610Z,483.75
2022-08-05T06:16:28.884Z,489.38
2022-08-05T06:17:22.346Z,500.62
2022-08-05T06:18:13.716Z,523.12
2022-08-05T06:19:13.782Z,472.50
2022-08-05T06:20:18.911Z,489.38
2022-08-05T06:21:18.460Z,461.25
2022-08-05T06:22:14.016Z,354.38
2022-08-05T06:23:14.081Z,320.62
2022-08-05T06:24:14.722Z,281.25
2022-08-05T06:25:59.279Z,225.00
2022-08-05T06:26:20.710Z,180.00
2022-08-05T06:28:08.820Z,146.25
2022-08-05T06:28:21.049Z,135.00
2022-08-05T06:29:23.667Z,135.00
2022-08-05T06:30:17.653Z,146.25
2022-08-05T06:31:18.035Z,140.62
2022-08-05T06:32:25.465Z,123.75
2022-08-05T06:33:19.080Z,106.88
2022-08-05T06:34:14.946Z,95.62
2022-08-05T06:35:21.791Z,95.62
2022-08-05T06:36:15.122Z,95.62
2022-08-05T06:37:15.163Z,90.00
2022-08-05T06:38:15.266Z,84.38
2022-08-05T06:39:15.381Z,90.00
2022-08-05T06:40:18.473Z,90.00
2022-08-05T06:41:15.500Z,84.38
2022-08-05T06:42:15.547Z,84.38
2022-08-05T06:43:57.440Z,90.00
2022-08-05T06:44:15.727Z,95.62
2022-08-05T06:45:20.664Z,106.88
2022-08-05T06:46:15.904Z,101.25
2022-08-05T06:47:29.982Z,95.62
2022-08-05T06:48:53.712Z,90.00
2022-08-05T06:49:16.092Z,90.00
2022-08-05T06:50:17.238Z,90.00
2022-08-05T06:51:25.232Z,84.38
2022-08-05T06:52:37.052Z,84.38
2022-08-05T06:53:22.446Z,90.00
2022-08-05T06:54:19.014Z,78.75
2022-08-05T06:55:16.547Z,67.50
2022-08-05T06:56:26.558Z,61.88
2022-08-05T06:58:02.557Z,61.88
2022-08-05T06:58:20.177Z,61.88
2022-08-05T06:59:16.875Z,61.88
2022-08-05T07:00:22.170Z,56.25
2022-08-05T07:01:20.853Z,56.25
2022-08-05T07:02:17.119Z,61.88
2022-08-05T07:03:17.217Z,61.88
2022-08-05T07:04:19.249Z,67.50
2022-08-05T07:05:19.578Z,73.12
2022-08-05T07:06:17.451Z,78.75
2022-08-05T07:07:35.591Z,95.62
2022-08-05T07:08:17.595Z,123.75
2022-08-05T07:09:17.666Z,146.25
2022-08-05T07:10:17.734Z,157.50
2022-08-05T07:11:17.836Z,196.88
2022-08-05T07:12:17.890Z,219.38
2022-08-05T07:13:17.967Z,213.75
2022-08-05T07:14:29.029Z,163.12
2022-08-05T07:15:34.620Z,140.62
2022-08-05T07:17:55.950Z,151.88
2022-08-05T07:18:09.338Z,180.00
2022-08-05T07:18:28.910Z,191.25
2022-08-05T07:19:53.804Z,196.88
2022-08-05T07:20:38.697Z,208.12
2022-08-05T07:21:25.972Z,230.62
2022-08-05T07:22:18.713Z,225.00
2022-08-05T07:23:25.916Z,208.12
2022-08-05T07:24:18.878Z,163.12
2022-08-05T07:25:55.464Z,157.50
2022-08-05T07:26:22.703Z,180.00
2022-08-05T07:27:19.173Z,202.50
2022-08-05T07:28:19.180Z,202.50
2022-08-05T07:29:19.280Z,208.12
2022-08-05T07:30:31.869Z,213.75
2022-08-05T07:31:19.456Z,219.38
2022-08-05T07:32:26.116Z,225.00
2022-08-05T07:33:19.585Z,253.12
2022-08-05T07:34:21.158Z,264.38
2022-08-05T07:36:04.716Z,303.75
2022-08-05T07:36:24.954Z,337.50
2022-08-05T07:37:19.915Z,343.12
2022-08-05T07:38:32.957Z,348.75
2022-08-05T07:39:50.342Z,348.75
2022-08-05T07:40:32.847Z,343.12
2022-08-05T07:42:09.499Z,348.75
2022-08-05T07:42:33.579Z,348.75
2022-08-05T07:43:21.153Z,326.25
2022-08-05T07:44:20.435Z,309.38
2022-08-05T07:45:57.852Z,281.25
2022-08-05T07:46:25.182Z,230.62
2022-08-05T07:47:20.764Z,236.25
2022-08-05T07:49:02.709Z,247.50
2022-08-05T07:49:20.823Z,236.25
2022-08-05T07:50:23.700Z,281.25
2022-08-05T07:51:23.814Z,281.25
2022-08-05T07:52:21.070Z,298.12
2022-08-05T07:53:21.119Z,275.62
2022-08-05T07:54:21.208Z,275.62
2022-08-05T07:56:04.731Z,309.38
2022-08-05T07:57:02.421Z,337.50
2022-08-05T07:57:55.247Z,360.00
2022-08-05T07:58:57.374Z,410.62
2022-08-05T07:59:21.875Z,444.38
2022-08-05T08:00:21.673Z,466.88
2022-08-05T08:01:21.989Z,500.62
2022-08-05T08:02:21.831Z,511.88
2022-08-05T08:03:22.146Z,489.38
2022-08-05T08:04:34.376Z,416.25
2022-08-05T08:05:22.086Z,348.75
2022-08-05T08:06:22.138Z,326.25
2022-08-05T08:07:23.015Z,309.38
2022-08-05T08:08:22.309Z,270.00
2022-08-05T08:09:22.378Z,253.12
2022-08-05T08:10:22.426Z,253.12
2022-08-05T08:11:27.585Z,264.38
2022-08-05T08:12:33.476Z,247.50
2022-08-05T08:13:29.394Z,230.62
2022-08-05T08:14:22.817Z,225.00
2022-08-05T08:15:37.359Z,219.38
2022-08-05T08:16:54.425Z,219.38
2022-08-05T08:17:23.222Z,219.38
2022-08-05T08:18:23.074Z,225.00
2022-08-05T08:20:10.277Z,219.38
2022-08-05T08:21:02.872Z,219.38
2022-08-05T08:21:23.287Z,219.38
2022-08-05T08:22:23.338Z,236.25
2022-08-05T08:24:01.005Z,264.38
2022-08-05T08:24:23.504Z,337.50
2022-08-05T08:25:26.527Z,354.38
2022-08-05T08:26:26.840Z,393.75
2022-08-05T08:27:35.776Z,348.75
2022-08-05T08:28:35.758Z,258.75
2022-08-05T08:30:06.037Z,208.12
2022-08-05T08:30:32.521Z,180.00
2022-08-05T08:31:24.116Z,146.25
2022-08-05T08:32:27.793Z,129.38
2022-08-05T08:33:24.280Z,140.62
2022-08-05T08:34:30.237Z,174.38
2022-08-05T08:35:26.738Z,168.75
2022-08-05T08:36:37.490Z,157.50
2022-08-05T08:37:27.835Z,180.00
2022-08-05T08:38:35.544Z,185.62
2022-08-05T08:39:24.907Z,202.50
2022-08-05T08:40:24.797Z,247.50
2022-08-05T08:41:25.938Z,236.25
2022-08-05T08:42:34.305Z,180.00
2022-08-05T08:45:20.946Z,185.62
2022-08-05T08:45:30.778Z,208.12
2022-08-05T08:45:36.192Z,191.25
2022-08-05T08:46:36.279Z,157.50
2022-08-05T08:48:06.179Z,151.88
2022-08-05T08:49:02.987Z,129.38
2022-08-05T08:50:22.856Z,123.75
2022-08-05T08:51:21.920Z,106.88
2022-08-05T08:52:06.045Z,95.62
2022-08-05T08:52:36.751Z,84.38
2022-08-05T08:53:36.861Z,112.50
2022-08-05T08:54:36.901Z,123.75
2022-08-05T08:56:04.146Z,118.12
2022-08-05T08:56:37.072Z,146.25
2022-08-05T08:57:42.268Z,174.38
2022-08-05T08:58:44.685Z,225.00
2022-08-05T08:59:37.337Z,275.62
2022-08-05T09:00:37.464Z,275.62
2022-08-05T09:01:37.483Z,253.12
2022-08-05T09:02:37.564Z,281.25
2022-08-05T09:03:45.025Z,354.38
2022-08-05T09:04:58.497Z,416.25
2022-08-05T09:05:38.269Z,433.12
2022-08-05T09:06:37.893Z,433.12
2022-08-05T09:07:39.855Z,573.75
2022-08-05T09:08:40.172Z,871.88
2022-08-05T09:09:38.157Z,1080.00
2022-08-05T09:10:38.181Z,1203.75
2022-08-05T09:11:50.853Z,1366.88
2022-08-05T09:12:38.355Z,1321.88
2022-08-05T09:14:00.824Z,1293.75
2022-08-05T09:14:56.575Z,1518.75
2022-08-05T09:15:38.588Z,1586.25
2022-08-05T09:16:38.637Z,1614.38
2022-08-05T09:17:42.985Z,1591.88
2022-08-05T09:18:42.790Z,1546.88
2022-08-05T09:19:55.165Z,1164.38
2022-08-05T09:20:38.933Z,810.00
2022-08-05T09:22:23.267Z,708.75
2022-08-05T09:22:39.509Z,489.38
2022-08-05T09:23:43.536Z,410.62
2022-08-05T09:24:39.226Z,399.38
2022-08-05T09:26:01.503Z,416.25
2022-08-05T09:26:39.366Z,697.50
2022-08-05T09:28:03.961Z,697.50
2022-08-05T09:28:39.694Z,1130.62
2022-08-05T09:29:47.717Z,511.88
2022-08-05T09:30:39.641Z,523.12
2022-08-05T09:32:40.002Z,590.62
2022-08-05T09:32:47.613Z,545.62
2022-08-05T09:33:39.902Z,573.75
2022-08-05T09:34:39.951Z,517.50
2022-08-05T09:35:40.029Z,388.12
2022-08-05T09:36:54.014Z,298.12
2022-08-05T09:38:18.452Z,253.12
2022-08-05T09:38:40.294Z,264.38
2022-08-05T09:39:45.136Z,371.25
2022-08-05T09:40:40.406Z,585.00
2022-08-05T09:41:40.519Z,596.25
2022-08-05T09:42:40.566Z,680.62
2022-08-05T09:43:42.180Z,652.50
2022-08-05T09:44:40.748Z,596.25
2022-08-05T09:46:06.648Z,540.00
2022-08-05T09:46:51.650Z,405.00
2022-08-05T09:47:54.966Z,331.88
2022-08-05T09:48:41.160Z,275.62
2022-08-05T09:50:00.598Z,253.12
2022-08-05T09:50:44.469Z,253.12
2022-08-05T09:51:41.326Z,258.75
2022-08-05T09:52:45.127Z,247.50
2022-08-05T09:53:54.045Z,247.50
2022-08-05T09:54:41.592Z,298.12
2022-08-05T09:55:58.716Z,410.62
2022-08-05T09:56:41.763Z,343.12
2022-08-05T09:57:43.268Z,365.62
2022-08-05T09:58:42.407Z,331.88
2022-08-05T09:59:42.000Z,326.25
2022-08-05T10:00:42.065Z,298.12
2022-08-05T10:01:45.885Z,236.25
2022-08-05T10:02:42.254Z,219.38
2022-08-05T10:03:58.473Z,219.38
2022-08-05T10:04:42.386Z,225.00
2022-08-05T10:05:42.489Z,241.88
2022-08-05T10:06:49.797Z,225.00
2022-08-05T10:08:10.680Z,230.62
2022-08-05T10:08:42.763Z,241.88
2022-08-05T10:09:44.926Z,275.62
2022-08-05T10:10:42.893Z,281.25
2022-08-05T10:11:42.974Z,315.00
2022-08-05T10:12:50.015Z,326.25
2022-08-05T10:13:45.755Z,326.25
2022-08-05T10:14:43.196Z,348.75
2022-08-05T10:15:43.291Z,354.38
2022-08-05T10:16:53.100Z,466.88
2022-08-05T10:17:47.435Z,433.12
2022-08-05T10:18:43.537Z,348.75
2022-08-05T10:20:03.577Z,298.12
2022-08-05T10:20:44.162Z,247.50
2022-08-05T10:21:43.769Z,247.50
2022-08-05T10:22:50.824Z,213.75
2022-08-05T10:23:59.345Z,196.88
2022-08-05T10:24:44.012Z,185.62
2022-08-05T10:25:44.106Z,174.38
2022-08-05T10:26:51.169Z,157.50
2022-08-05T10:28:16.706Z,140.62
2022-08-05T10:28:44.935Z,140.62
2022-08-05T10:30:06.867Z,140.62
2022-08-05T10:32:53.842Z,112.50
2022-08-05T10:33:03.969Z,112.50
2022-08-05T10:33:14.485Z,112.50
2022-08-05T10:34:09.395Z,112.50
2022-08-05T10:35:09.384Z,101.25
2022-08-05T10:36:09.455Z,95.62
2022-08-05T10:37:09.505Z,106.88
2022-08-05T10:38:11.895Z,123.75
2022-08-05T10:39:11.812Z,135.00
2022-08-05T10:40:18.094Z,140.62
2022-08-05T10:41:09.851Z,140.62
2022-08-05T10:42:11.314Z,135.00
2022-08-05T10:43:12.411Z,129.38
2022-08-05T10:44:10.201Z,151.88
2022-08-05T10:45:23.445Z,140.62
2022-08-05T10:46:10.537Z,135.00
2022-08-05T10:47:10.318Z,157.50
2022-08-05T10:48:31.422Z,191.25
2022-08-05T10:49:16.461Z,219.38
2022-08-05T10:50:31.980Z,236.25
2022-08-05T10:51:21.397Z,253.12
2022-08-05T10:52:10.741Z,241.88
2022-08-05T10:53:10.782Z,270.00
2022-08-05T10:54:28.570Z,258.75
2022-08-05T10:55:10.928Z,264.38
2022-08-05T10:56:21.272Z,230.62
2022-08-05T10:57:11.105Z,219.38
2022-08-05T10:58:11.627Z,202.50
2022-08-05T10:59:12.603Z,208.12
2022-08-05T11:00:12.154Z,208.12
2022-08-05T11:01:11.558Z,180.00
2022-08-05T11:02:14.412Z,180.00
2022-08-05T11:03:25.532Z,196.88
2022-08-05T11:04:11.695Z,191.25
2022-08-05T11:05:11.740Z,180.00
2022-08-05T11:06:15.430Z,185.62
2022-08-05T11:07:11.895Z,196.88
2022-08-05T11:08:33.656Z,202.50
2022-08-05T11:09:13.069Z,219.38
2022-08-05T11:10:12.109Z,264.38
2022-08-05T11:11:16.498Z,298.12
2022-08-05T11:12:12.262Z,337.50
2022-08-05T11:13:12.342Z,393.75
2022-08-05T11:14:12.422Z,376.88
2022-08-05T11:15:20.194Z,337.50
2022-08-05T11:16:12.560Z,298.12
2022-08-05T11:18:07.367Z,247.50
2022-08-05T11:18:14.508Z,241.88
2022-08-05T11:20:10.193Z,275.62
2022-08-05T11:20:18.328Z,382.50
2022-08-05T11:21:12.938Z,438.75
2022-08-05T11:22:13.026Z,433.12
2022-08-05T11:23:13.136Z,461.25
2022-08-05T11:24:29.831Z,444.38
2022-08-05T11:26:03.200Z,421.88
2022-08-05T11:26:13.384Z,376.88
2022-08-05T11:27:13.483Z,438.75
2022-08-05T11:28:17.299Z,483.75
2022-08-05T11:29:14.453Z,466.88
2022-08-05T11:30:13.717Z,466.88
2022-08-05T11:31:51.825Z,523.12
2022-08-05T11:32:13.852Z,573.75
2022-08-05T11:33:13.926Z,568.12
2022-08-05T11:34:15.077Z,534.38
2022-08-05T11:35:15.515Z,528.75
2022-08-05T11:36:14.152Z,511.88
2022-08-05T11:38:30.350Z,489.38
2022-08-05T11:38:45.949Z,495.00
2022-08-05T11:39:14.479Z,455.62
2022-08-05T11:40:14.466Z,489.38
2022-08-05T11:41:56.199Z,489.38
2022-08-05T11:42:18.425Z,500.62
2022-08-05T11:43:14.691Z,523.12
2022-08-05T11:44:40.390Z,528.75
2022-08-05T11:45:26.862Z,579.38
2022-08-05T11:46:32.252Z,708.75
2022-08-05T11:47:18.642Z,753.75
2022-08-05T11:48:15.099Z,759.38
2022-08-05T11:49:15.181Z,753.75
2022-08-05T11:50:15.242Z,742.50
2022-08-05T11:51:44.186Z,703.12
2022-08-05T11:52:15.375Z,624.38
2022-08-05T11:53:15.548Z,523.12
2022-08-05T11:54:15.590Z,438.75
2022-08-05T11:55:15.638Z,427.50
2022-08-05T11:56:15.689Z,393.75
2022-08-05T11:57:25.089Z,421.88
2022-08-05T11:58:17.455Z,523.12
2022-08-05T11:59:15.958Z,646.88
2022-08-05T12:00:16.023Z,736.88
2022-08-05T12:01:19.179Z,838.12
2022-08-05T12:02:29.781Z,922.50
2022-08-05T12:03:16.385Z,860.62
2022-08-05T12:04:16.502Z,815.62
2022-08-05T12:05:18.044Z,731.25
2022-08-05T12:06:16.550Z,624.38
2022-08-05T12:07:16.712Z,545.62
2022-08-05T12:08:17.908Z,461.25
2022-08-05T12:09:19.956Z,371.25
2022-08-05T12:10:16.825Z,309.38
2022-08-05T12:11:17.242Z,281.25
2022-08-05T12:12:16.983Z,270.00
2022-08-05T12:13:27.746Z,281.25
2022-08-05T12:14:17.247Z,292.50
2022-08-05T12:15:17.218Z,315.00
2022-08-05T12:16:17.289Z,337.50
2022-08-05T12:18:02.498Z,348.75
2022-08-05T12:18:17.595Z,360.00
2022-08-05T12:20:27.311Z,376.88
2022-08-05T12:20:38.094Z,500.62
2022-08-05T12:21:17.771Z,590.62
2022-08-05T12:22:19.907Z,641.25
2022-08-05T12:23:17.843Z,680.62
2022-08-05T12:24:17.916Z,697.50
2022-08-05T12:25:17.988Z,675.00
2022-08-05T12:26:18.084Z,691.88
2022-08-05T12:27:32.566Z,725.62
2022-08-05T12:28:18.231Z,708.75
2022-08-05T12:29:22.859Z,652.50
2022-08-05T12:30:18.364Z,630.00
2022-08-05T12:31:28.066Z,725.62
2022-08-05T12:32:18.512Z,770.62
2022-08-05T12:33:27.705Z,815.62
2022-08-05T12:34:20.685Z,720.00
2022-08-05T12:35:21.659Z,753.75
2022-08-05T12:36:18.825Z,641.25
2022-08-05T12:37:21.750Z,618.75
2022-08-05T12:38:18.941Z,613.12
2022-08-05T12:39:19.210Z,601.88
2022-08-05T12:40:26.539Z,596.25
2022-08-05T12:41:19.215Z,579.38
2022-08-05T12:42:19.298Z,579.38
2022-08-05T12:43:20.654Z,601.88
2022-08-05T12:44:28.620Z,618.75
2022-08-05T12:45:19.529Z,635.62
2022-08-05T12:46:23.594Z,652.50
2022-08-05T12:47:19.703Z,663.75
2022-08-05T12:48:32.580Z,663.75
2022-08-05T12:49:19.872Z,691.88
2022-08-05T12:50:20.004Z,630.00
2022-08-05T12:52:10.028Z,545.62